createdAt,value
2023-03-29T00:00:11.082Z,8.68
2023-03-29T00:02:39.068Z,6.43
2023-03-29T00:05:11.863Z,13.30
2023-03-29T00:07:38.945Z,6.15
2023-03-29T00:10:06.487Z,5.25
2023-03-29T00:12:36.786Z,5.22
2023-03-29T00:15:08.539Z,7.97
2023-03-29T00:17:35.716Z,5.35
2023-03-29T00:20:05.462Z,7.80
2023-03-29T00:22:33.259Z,3.17
2023-03-29T00:25:04.122Z,6.20
2023-03-29T00:27:31.658Z,3.65
2023-03-29T00:30:01.516Z,7.80
2023-03-29T00:32:29.074Z,6.80
2023-03-29T00:35:01.055Z,10.43
2023-03-29T00:37:30.004Z,4.40
2023-03-29T00:39:57.756Z,7.30
2023-03-29T00:42:26.079Z,5.38
2023-03-29T00:45:25.223Z,3.90
2023-03-29T00:48:00.138Z,3.17
2023-03-29T00:50:41.689Z,3.65
2023-03-29T00:53:38.543Z,5.45
2023-03-29T00:56:19.886Z,9.48
2023-03-29T00:58:55.051Z,6.00
2023-03-29T01:02:02.291Z,1.92
2023-03-29T01:04:43.931Z,4.63
2023-03-29T01:07:23.304Z,3.53
2023-03-29T01:10:01.839Z,10.82
2023-03-29T01:12:36.039Z,4.18
2023-03-29T01:15:09.163Z,8.43
2023-03-29T01:17:37.333Z,4.72
2023-03-29T01:23:00.665Z,8.13
2023-03-29T01:26:01.709Z,2.75
2023-03-29T01:28:38.718Z,7.75
2023-03-29T01:31:11.934Z,4.20
2023-03-29T01:33:44.924Z,4.57
2023-03-29T01:36:27.508Z,5.82
2023-03-29T01:38:57.854Z,3.90
2023-03-29T01:41:39.696Z,4.07
2023-03-29T01:44:15.340Z,2.58
2023-03-29T01:46:47.382Z,5.35
2023-03-29T01:49:20.871Z,6.85
2023-03-29T01:51:58.098Z,3.38
2023-03-29T01:54:48.569Z,3.33
2023-03-29T01:57:19.921Z,7.43
2023-03-29T01:59:49.220Z,4.22
2023-03-29T02:02:18.400Z,6.80
2023-03-29T02:04:52.323Z,3.97
2023-03-29T02:07:25.288Z,4.28
2023-03-29T02:09:57.044Z,1.83
2023-03-29T02:12:24.209Z,4.75
2023-03-29T02:14:51.328Z,7.55
2023-03-29T02:17:18.410Z,7.07
2023-03-29T02:19:54.384Z,4.93
2023-03-29T02:22:37.573Z,4.35
2023-03-29T02:25:08.481Z,3.38
2023-03-29T02:27:38.093Z,8.38
2023-03-29T02:30:08.311Z,9.07
2023-03-29T02:32:52.453Z,4.00
2023-03-29T02:35:53.110Z,6.78
2023-03-29T02:38:21.849Z,6.82
2023-03-29T02:40:49.167Z,8.82
2023-03-29T02:43:17.978Z,8.07
2023-03-29T02:45:46.424Z,11.38
2023-03-29T02:48:18.271Z,7.00
2023-03-29T02:50:50.975Z,8.13
2023-03-29T02:53:24.195Z,12.77
2023-03-29T02:55:53.497Z,5.47
2023-03-29T02:58:26.473Z,4.90
2023-03-29T03:00:53.862Z,7.88
2023-03-29T03:03:23.873Z,6.13
2023-03-29T03:05:54.489Z,3.67
2023-03-29T03:08:21.755Z,6.75
2023-03-29T03:10:49.197Z,3.03
2023-03-29T03:13:16.482Z,4.38
2023-03-29T03:15:49.154Z,7.43
2023-03-29T03:18:17.056Z,6.00
2023-03-29T03:20:46.601Z,8.45
2023-03-29T03:23:13.699Z,11.07
2023-03-29T03:25:41.111Z,5.70
2023-03-29T03:28:08.320Z,4.07
2023-03-29T03:30:41.622Z,12.88
2023-03-29T03:33:19.251Z,7.53
2023-03-29T03:36:18.314Z,3.25
2023-03-29T03:38:49.623Z,8.48
2023-03-29T03:41:16.916Z,3.33
2023-03-29T03:43:48.679Z,5.03
2023-03-29T03:46:17.216Z,6.28
2023-03-29T03:48:50.419Z,12.20
2023-03-29T03:51:22.307Z,6.10
2023-03-29T03:53:50.951Z,5.10
2023-03-29T03:56:38.388Z,7.43
2023-03-29T03:59:16.511Z,11.35
2023-03-29T04:01:56.322Z,7.60
2023-03-29T04:04:24.953Z,6.85
2023-03-29T04:07:04.961Z,5.85
2023-03-29T04:09:59.027Z,5.75
2023-03-29T04:12:36.498Z,7.07
2023-03-29T04:15:04.341Z,7.30
2023-03-29T04:17:32.413Z,10.88
2023-03-29T04:20:10.271Z,8.88
2023-03-29T04:22:37.905Z,10.20
2023-03-29T04:25:06.716Z,4.88
2023-03-29T04:27:46.186Z,7.38
2023-03-29T04:30:41.758Z,6.05
2023-03-29T04:33:19.984Z,4.80
2023-03-29T04:35:53.673Z,7.15
2023-03-29T04:38:23.373Z,6.72
2023-03-29T04:40:52.174Z,11.65
2023-03-29T04:43:26.221Z,5.03
2023-03-29T04:46:03.453Z,7.05
2023-03-29T04:48:49.185Z,10.68
2023-03-29T04:51:17.866Z,4.97
2023-03-29T04:53:45.943Z,13.93
2023-03-29T04:56:13.373Z,4.45
2023-03-29T04:58:59.249Z,7.35
2023-03-29T05:01:27.440Z,8.43
2023-03-29T05:03:58.213Z,11.40
2023-03-29T05:06:34.065Z,13.45
2023-03-29T05:09:01.664Z,9.65
2023-03-29T05:11:41.861Z,3.78
2023-03-29T05:14:09.449Z,8.20
2023-03-29T05:16:38.116Z,8.80
2023-03-29T05:19:06.490Z,14.65
2023-03-29T05:21:41.368Z,13.43
2023-03-29T05:24:13.173Z,5.28
2023-03-29T05:26:56.586Z,7.35
2023-03-29T05:29:25.302Z,6.65
2023-03-29T05:32:03.385Z,4.47
2023-03-29T05:34:35.012Z,8.02
2023-03-29T05:37:03.278Z,4.10
2023-03-29T05:39:40.049Z,5.10
2023-03-29T05:42:07.336Z,6.45
2023-03-29T05:44:47.356Z,8.23
2023-03-29T05:47:20.686Z,9.20
2023-03-29T05:49:51.469Z,7.60
2023-03-29T05:52:26.435Z,12.18
2023-03-29T05:54:55.380Z,12.10
2023-03-29T05:57:33.110Z,9.60
2023-03-29T06:00:20.482Z,35.90
2023-03-29T06:02:56.336Z,5.75
2023-03-29T06:05:27.700Z,5.22
2023-03-29T06:07:59.162Z,11.43
2023-03-29T06:10:50.379Z,5.68
2023-03-29T06:13:38.969Z,4.55
2023-03-29T06:16:10.640Z,7.80
2023-03-29T06:18:41.411Z,9.32
2023-03-29T06:21:09.585Z,12.73
2023-03-29T06:23:52.317Z,4.45
2023-03-29T06:26:21.107Z,9.88
2023-03-29T06:28:52.215Z,9.35
2023-03-29T06:31:21.307Z,6.32
2023-03-29T06:33:51.676Z,4.72
2023-03-29T06:36:34.254Z,5.00
2023-03-29T06:39:07.526Z,5.80
2023-03-29T06:41:58.303Z,12.80
2023-03-29T06:44:45.667Z,6.35
2023-03-29T06:47:24.395Z,4.03
2023-03-29T06:49:51.656Z,8.05
2023-03-29T06:52:48.916Z,13.25
2023-03-29T06:55:16.657Z,13.30
2023-03-29T06:57:49.484Z,6.40
2023-03-29T07:00:39.931Z,7.70
2023-03-29T07:03:20.154Z,5.32
2023-03-29T07:05:55.077Z,9.23
2023-03-29T07:08:31.819Z,11.98
2023-03-29T07:11:08.683Z,6.85
2023-03-29T07:13:49.432Z,7.00
2023-03-29T07:16:24.704Z,9.48
2023-03-29T07:19:01.429Z,3.90
2023-03-29T07:21:54.872Z,10.90
2023-03-29T07:24:26.582Z,3.67
2023-03-29T07:27:04.061Z,7.53
2023-03-29T07:29:34.915Z,5.55
2023-03-29T07:32:03.146Z,7.53
2023-03-29T07:34:51.333Z,8.30
2023-03-29T07:37:37.473Z,6.30
2023-03-29T07:40:12.822Z,8.60
2023-03-29T07:43:01.432Z,11.23
2023-03-29T07:45:32.587Z,8.20
2023-03-29T07:48:05.787Z,4.90
2023-03-29T07:50:48.875Z,11.50
2023-03-29T07:53:19.146Z,8.55
2023-03-29T07:55:50.194Z,7.80
2023-03-29T07:58:40.223Z,5.35
2023-03-29T08:01:20.212Z,10.00
2023-03-29T08:04:02.548Z,6.05
2023-03-29T08:07:00.408Z,5.05
2023-03-29T08:09:43.606Z,8.43
2023-03-29T08:12:11.414Z,7.30
2023-03-29T08:14:51.078Z,6.40
2023-03-29T08:17:28.930Z,7.00
2023-03-29T08:22:27.977Z,5.40
2023-03-29T08:25:15.847Z,7.28
2023-03-29T08:27:53.517Z,5.15
2023-03-29T08:30:33.405Z,8.63
2023-03-29T08:33:02.319Z,6.15
2023-03-29T08:35:29.999Z,4.78
2023-03-29T08:38:22.767Z,3.78
2023-03-29T08:40:54.837Z,9.32
2023-03-29T08:43:31.993Z,7.15
2023-03-29T08:46:35.351Z,8.00
2023-03-29T08:51:59.853Z,5.40
2023-03-29T08:54:36.808Z,7.55
2023-03-29T08:57:24.213Z,6.63
2023-03-29T09:00:01.304Z,9.02
2023-03-29T09:02:34.159Z,7.45
2023-03-29T09:05:23.390Z,7.95
2023-03-29T09:08:07.877Z,7.25
2023-03-29T09:10:50.597Z,5.50
2023-03-29T09:13:39.046Z,8.05
2023-03-29T09:16:25.525Z,4.53
2023-03-29T09:19:30.748Z,4.45
2023-03-29T09:22:10.525Z,5.55
2023-03-29T09:25:03.403Z,6.68
2023-03-29T09:27:44.408Z,4.10
2023-03-29T09:30:35.636Z,11.32
2023-03-29T09:33:31.704Z,4.70
2023-03-29T09:36:20.024Z,7.68
2023-03-29T09:38:51.260Z,8.23
2023-03-29T09:41:45.163Z,8.10
2023-03-29T09:44:33.281Z,8.55
2023-03-29T09:47:25.966Z,6.40
2023-03-29T09:50:01.852Z,6.82
2023-03-29T09:52:29.239Z,7.80
2023-03-29T09:55:06.680Z,8.05
2023-03-29T09:57:52.560Z,5.25
2023-03-29T10:00:20.721Z,9.05
2023-03-29T10:03:03.545Z,8.82
2023-03-29T10:05:47.892Z,7.00
2023-03-29T10:08:27.044Z,7.53
2023-03-29T10:10:58.568Z,11.80
2023-03-29T10:13:31.737Z,9.50
2023-03-29T10:16:07.492Z,4.95
2023-03-29T10:18:42.011Z,5.80
2023-03-29T10:21:12.873Z,10.90
2023-03-29T10:23:40.022Z,5.38
2023-03-29T10:26:15.708Z,6.78
2023-03-29T10:28:42.997Z,7.70
2023-03-29T10:31:18.928Z,8.50
2023-03-29T10:33:52.544Z,6.35
2023-03-29T10:36:19.926Z,5.20
2023-03-29T10:38:47.671Z,5.53
2023-03-29T10:41:23.114Z,6.35
2023-03-29T10:43:51.195Z,9.43
2023-03-29T10:46:27.429Z,10.40
2023-03-29T10:49:06.053Z,7.80
2023-03-29T10:51:34.541Z,6.95
2023-03-29T10:57:04.429Z,8.27
2023-03-29T10:59:52.418Z,7.43
2023-03-29T11:02:35.996Z,4.72
2023-03-29T11:05:48.301Z,5.57
2023-03-29T11:08:43.653Z,10.25
2023-03-29T11:11:24.491Z,6.95
2023-03-29T11:14:05.730Z,6.47
2023-03-29T11:17:02.327Z,7.65
2023-03-29T11:19:53.412Z,6.07
2023-03-29T11:23:07.272Z,9.23
2023-03-29T11:25:37.273Z,5.75
2023-03-29T11:28:07.691Z,5.32
2023-03-29T11:30:44.709Z,4.55
2023-03-29T11:33:47.737Z,5.88
2023-03-29T11:36:46.673Z,4.78
2023-03-29T11:39:54.302Z,6.45
2023-03-29T11:42:29.426Z,4.38
2023-03-29T11:45:00.054Z,9.10
2023-03-29T11:47:31.917Z,6.47
2023-03-29T11:50:22.102Z,5.47
2023-03-29T11:52:56.598Z,6.22
2023-03-29T11:55:37.474Z,13.73
2023-03-29T11:58:16.818Z,8.05
2023-03-29T12:01:10.943Z,7.60
2023-03-29T12:04:01.695Z,7.65
2023-03-29T12:06:50.824Z,7.72
2023-03-29T12:09:40.320Z,8.82
2023-03-29T12:12:21.401Z,10.13
2023-03-29T12:15:20.067Z,7.82
2023-03-29T12:18:10.085Z,7.18
2023-03-29T12:20:40.424Z,7.43
2023-03-29T12:23:14.692Z,8.23
2023-03-29T12:25:47.576Z,9.57
2023-03-29T12:28:33.333Z,7.63
2023-03-29T12:31:09.558Z,8.32
2023-03-29T12:33:57.833Z,8.15
2023-03-29T12:37:14.402Z,10.65
2023-03-29T12:40:10.147Z,6.03
2023-03-29T12:43:15.902Z,7.00
2023-03-29T12:46:09.169Z,7.90
2023-03-29T12:48:41.902Z,10.88
2023-03-29T12:51:42.760Z,8.77
2023-03-29T12:54:21.690Z,10.13
2023-03-29T12:56:52.096Z,8.60
2023-03-29T13:00:08.724Z,21.38
2023-03-29T13:02:37.837Z,8.50
2023-03-29T13:05:31.655Z,10.88
2023-03-29T13:08:12.904Z,15.85
2023-03-29T13:10:44.240Z,12.38
2023-03-29T13:13:18.944Z,11.95
2023-03-29T13:18:39.000Z,16.00
2023-03-29T13:21:37.962Z,9.65
2023-03-29T13:24:23.677Z,10.95
2023-03-29T13:26:59.660Z,10.52
2023-03-29T13:30:34.220Z,13.43
2023-03-29T13:33:13.353Z,9.27
2023-03-29T13:36:33.111Z,14.52
2023-03-29T13:39:08.085Z,11.05
2023-03-29T13:41:38.254Z,13.50
2023-03-29T13:44:25.718Z,9.32
2023-03-29T13:47:17.648Z,12.60
2023-03-29T13:50:01.184Z,12.32
2023-03-29T13:52:55.408Z,13.13
2023-03-29T13:56:01.946Z,9.70
2023-03-29T13:58:51.335Z,13.57
2023-03-29T14:01:45.505Z,12.73
2023-03-29T14:06:56.297Z,11.45
2023-03-29T14:09:46.000Z,12.98
2023-03-29T14:12:22.573Z,16.25
2023-03-29T14:14:59.355Z,15.52
2023-03-29T14:17:35.026Z,13.95
2023-03-29T14:20:09.701Z,12.77
2023-03-29T14:22:50.866Z,15.82
2023-03-29T14:25:30.053Z,12.05
2023-03-29T14:28:00.281Z,15.15
2023-03-29T14:30:36.764Z,13.23
2023-03-29T14:33:11.902Z,15.27
2023-03-29T14:35:44.125Z,14.15
2023-03-29T14:38:17.634Z,12.93
2023-03-29T14:40:47.968Z,17.75
2023-03-29T14:43:24.134Z,10.50
2023-03-29T14:45:57.113Z,14.68
2023-03-29T14:48:35.946Z,11.20
2023-03-29T14:51:13.994Z,15.77
2023-03-29T14:53:50.397Z,12.02
2023-03-29T14:56:26.641Z,11.35
2023-03-29T14:58:55.332Z,11.63
2023-03-29T15:01:46.153Z,12.95
2023-03-29T15:04:13.936Z,10.52
2023-03-29T15:06:52.927Z,11.80
2023-03-29T15:09:28.318Z,12.35
2023-03-29T15:12:00.172Z,9.77
2023-03-29T15:14:38.236Z,12.63
2023-03-29T15:17:51.938Z,15.98
2023-03-29T15:20:27.108Z,10.48
2023-03-29T15:23:40.793Z,10.55
2023-03-29T15:26:21.963Z,17.75
2023-03-29T15:28:55.842Z,12.68
2023-03-29T15:31:32.992Z,10.32
2023-03-29T15:34:27.555Z,11.43
2023-03-29T15:36:57.842Z,16.58
2023-03-29T15:39:27.704Z,15.15
2023-03-29T15:41:56.929Z,9.00
2023-03-29T15:44:29.032Z,7.68
2023-03-29T15:46:58.174Z,8.02
2023-03-29T15:49:26.320Z,14.52
2023-03-29T15:51:54.369Z,13.02
2023-03-29T15:56:53.486Z,11.73
2023-03-29T15:59:21.653Z,16.65
2023-03-29T16:01:49.232Z,12.85
2023-03-29T16:04:21.923Z,15.82
2023-03-29T16:06:53.451Z,11.48
2023-03-29T16:09:22.376Z,14.05
2023-03-29T16:11:50.126Z,14.80
2023-03-29T16:14:30.537Z,9.95
2023-03-29T16:17:06.276Z,13.98
2023-03-29T16:19:36.213Z,9.70
2023-03-29T16:22:07.374Z,15.32
2023-03-29T16:24:36.108Z,11.70
2023-03-29T16:27:03.812Z,12.52
2023-03-29T16:29:31.682Z,10.00
2023-03-29T16:34:26.836Z,11.93
2023-03-29T16:36:54.159Z,10.95
2023-03-29T16:39:21.529Z,13.40
2023-03-29T16:41:50.123Z,11.23
2023-03-29T16:44:23.764Z,12.27
2023-03-29T16:46:54.200Z,8.05
2023-03-29T16:49:21.747Z,12.45
2023-03-29T16:51:48.925Z,11.75
2023-03-29T16:54:19.733Z,13.02
2023-03-29T16:56:47.169Z,12.25
2023-03-29T16:59:15.370Z,11.73
2023-03-29T17:01:42.801Z,9.60
2023-03-29T17:04:12.533Z,11.27
2023-03-29T17:06:39.886Z,10.38
2023-03-29T17:09:07.381Z,11.93
2023-03-29T17:11:34.849Z,13.05
2023-03-29T17:14:02.374Z,16.02
2023-03-29T17:16:29.608Z,13.82
2023-03-29T17:19:00.496Z,13.13
2023-03-29T17:21:30.822Z,16.23
2023-03-29T17:23:57.925Z,13.75
2023-03-29T17:26:25.094Z,10.25
2023-03-29T17:28:52.191Z,12.43
2023-03-29T17:31:19.566Z,11.02
2023-03-29T17:33:47.556Z,12.43
2023-03-29T17:38:42.964Z,16.15
2023-03-29T17:41:11.117Z,11.55
2023-03-29T17:43:38.414Z,16.77
2023-03-29T17:46:06.213Z,16.25
2023-03-29T17:48:34.456Z,14.45
2023-03-29T17:53:28.528Z,18.08
2023-03-29T17:55:55.713Z,16.88
2023-03-29T17:58:22.840Z,15.73
2023-03-29T18:00:50.074Z,17.70
2023-03-29T18:03:17.264Z,17.65
2023-03-29T18:05:44.405Z,17.52
2023-03-29T18:08:15.058Z,17.90
2023-03-29T18:10:43.163Z,14.90
2023-03-29T18:13:13.916Z,16.85
2023-03-29T18:15:42.215Z,16.60
2023-03-29T18:18:09.469Z,15.57
2023-03-29T18:20:36.997Z,16.70
2023-03-29T18:23:04.255Z,20.48
2023-03-29T18:25:31.323Z,17.40
2023-03-29T18:27:58.474Z,17.67
2023-03-29T18:30:25.886Z,16.23
2023-03-29T18:32:53.601Z,15.40
2023-03-29T18:35:20.957Z,24.98
2023-03-29T18:37:48.194Z,19.98
2023-03-29T18:40:16.704Z,15.70
2023-03-29T18:42:43.876Z,16.65
2023-03-29T18:45:11.709Z,15.65
2023-03-29T18:47:41.613Z,18.50
2023-03-29T18:50:09.504Z,13.10
2023-03-29T18:52:36.763Z,15.02
2023-03-29T18:55:05.269Z,22.17
2023-03-29T18:57:32.628Z,20.83
2023-03-29T19:00:00.120Z,17.63
2023-03-29T19:02:27.305Z,16.70
2023-03-29T19:04:57.441Z,21.58
2023-03-29T19:07:24.509Z,17.60
2023-03-29T19:09:51.638Z,18.42
2023-03-29T19:12:18.777Z,12.35
2023-03-29T19:14:46.691Z,16.20
2023-03-29T19:19:40.863Z,14.57
2023-03-29T19:22:08.411Z,13.30
2023-03-29T19:24:35.806Z,16.58
2023-03-29T19:27:03.114Z,12.63
2023-03-29T19:29:30.503Z,13.50
2023-03-29T19:31:57.763Z,16.13
2023-03-29T19:34:24.941Z,15.20
2023-03-29T19:36:53.941Z,14.18
2023-03-29T19:39:21.952Z,15.80
2023-03-29T19:41:49.595Z,14.55
2023-03-29T19:44:16.683Z,14.40
2023-03-29T19:46:44.818Z,13.77
2023-03-29T19:49:13.705Z,13.27
2023-03-29T19:51:41.989Z,13.50
2023-03-29T19:54:11.385Z,13.25
2023-03-29T19:56:38.714Z,15.23
2023-03-29T19:59:06.404Z,16.08
2023-03-29T20:01:33.883Z,12.30
2023-03-29T20:04:02.638Z,13.52
2023-03-29T20:06:29.996Z,13.65
2023-03-29T20:08:58.644Z,11.63
2023-03-29T20:11:26.062Z,15.73
2023-03-29T20:13:53.340Z,12.90
2023-03-29T20:16:24.227Z,17.25
2023-03-29T20:18:54.021Z,11.65
2023-03-29T20:21:21.241Z,13.90
2023-03-29T20:23:48.338Z,13.18
2023-03-29T20:26:15.519Z,16.02
2023-03-29T20:28:42.741Z,13.75
2023-03-29T20:31:13.131Z,15.80
2023-03-29T20:33:41.733Z,10.55
2023-03-29T20:36:09.094Z,14.50
2023-03-29T20:38:36.738Z,13.50
2023-03-29T20:41:05.448Z,11.65
2023-03-29T20:43:37.521Z,10.25
2023-03-29T20:46:14.300Z,10.88
2023-03-29T20:48:53.436Z,13.52
2023-03-29T20:51:22.558Z,15.32
2023-03-29T20:53:50.725Z,12.50
2023-03-29T20:56:19.058Z,12.43
2023-03-29T20:58:46.935Z,11.88
2023-03-29T21:01:14.415Z,12.27
2023-03-29T21:03:43.459Z,12.13
2023-03-29T21:06:14.000Z,10.30
2023-03-29T21:08:42.649Z,10.90
2023-03-29T21:11:13.072Z,14.80
2023-03-29T21:13:41.571Z,14.45
2023-03-29T21:16:13.004Z,14.13
2023-03-29T21:18:40.519Z,14.02
2023-03-29T21:21:09.749Z,19.90
2023-03-29T21:23:38.979Z,14.18
2023-03-29T21:26:07.839Z,13.93
2023-03-29T21:28:35.477Z,23.60
2023-03-29T21:31:06.765Z,12.77
2023-03-29T21:33:35.047Z,16.63
2023-03-29T21:36:02.585Z,12.93
2023-03-29T21:38:29.771Z,13.90
2023-03-29T21:40:58.161Z,12.50
2023-03-29T21:43:25.450Z,12.57
2023-03-29T21:45:52.592Z,11.93
2023-03-29T21:48:19.817Z,12.38
2023-03-29T21:50:53.317Z,16.45
2023-03-29T21:53:20.425Z,14.73
2023-03-29T21:55:48.983Z,11.48
2023-03-29T21:58:16.300Z,17.63
2023-03-29T22:00:43.997Z,18.50
2023-03-29T22:03:11.479Z,13.63
2023-03-29T22:05:39.143Z,15.27
2023-03-29T22:08:10.340Z,15.25
2023-03-29T22:10:41.232Z,11.85
2023-03-29T22:13:09.278Z,13.52
2023-03-29T22:15:36.425Z,14.95
2023-03-29T22:18:03.932Z,16.00
2023-03-29T22:20:35.801Z,12.57
2023-03-29T22:23:03.431Z,11.50
2023-03-29T22:25:30.517Z,17.75
2023-03-29T22:27:57.663Z,13.90
2023-03-29T22:30:24.759Z,15.13
2023-03-29T22:32:52.121Z,14.77
2023-03-29T22:35:19.413Z,12.73
2023-03-29T22:37:46.535Z,14.60
2023-03-29T22:40:13.941Z,13.32
2023-03-29T22:42:41.277Z,12.52
2023-03-29T22:45:09.101Z,13.00
2023-03-29T22:50:13.416Z,13.80
2023-03-29T22:52:40.611Z,10.73
2023-03-29T22:55:08.451Z,10.15
2023-03-29T23:00:09.136Z,11.95
2023-03-29T23:02:37.214Z,11.40
2023-03-29T23:05:04.688Z,13.07
2023-03-29T23:07:36.264Z,14.18
2023-03-29T23:10:06.538Z,14.00
2023-03-29T23:12:36.175Z,14.07
2023-03-29T23:15:08.037Z,13.63
2023-03-29T23:17:35.704Z,10.23
2023-03-29T23:20:06.084Z,13.77
2023-03-29T23:22:35.859Z,10.00
2023-03-29T23:25:05.776Z,9.70
2023-03-29T23:27:33.181Z,12.00
2023-03-29T23:30:03.716Z,11.95
2023-03-29T23:32:30.861Z,12.02
2023-03-29T23:34:58.150Z,14.90
2023-03-29T23:37:28.715Z,11.57
2023-03-29T23:39:56.022Z,13.20
2023-03-29T23:42:23.212Z,13.80
2023-03-29T23:44:50.721Z,12.02
2023-03-29T23:47:17.839Z,12.60
2023-03-29T23:49:45.359Z,13.80
2023-03-29T23:52:12.544Z,12.80
2023-03-29T23:54:39.636Z,10.43
2023-03-29T23:57:06.836Z,12.02
2023-03-29T23:59:37.788Z,11.13
